sensor_id;sensor_type;location;lat;lon;timestamp;pressure;altitude;pressure_sealevel;temperature;humidity
60019;BME280;45870;42.528;26.740;2023-03-05T00:02:19;99262.47;;;13.07;45.91
60019;BME280;45870;42.528;26.740;2023-03-05T00:04:45;99269.28;;;12.78;46.51
60019;BME280;45870;42.528;26.740;2023-03-05T00:07:10;99061.22;;;11.59;45.56
60019;BME280;45870;42.528;26.740;2023-03-05T00:09:39;99193.56;;;12.24;46.25
60019;BME280;45870;42.528;26.740;2023-03-05T00:12:06;99160.50;;;11.90;45.60
60019;BME280;45870;42.528;26.740;2023-03-05T00:14:32;99269.09;;;12.58;45.93
60019;BME280;45870;42.528;26.740;2023-03-05T00:16:58;99263.63;;;12.52;45.55
60019;BME280;45870;42.528;26.740;2023-03-05T00:19:23;99258.97;;;12.16;47.59
60019;BME280;45870;42.528;26.740;2023-03-05T00:21:49;99230.06;;;11.95;45.63
60019;BME280;45870;42.528;26.740;2023-03-05T00:24:16;99167.84;;;11.25;45.19
60019;BME280;45870;42.528;26.740;2023-03-05T00:26:43;99249.69;;;11.64;45.78
60019;BME280;45870;42.528;26.740;2023-03-05T00:29:13;99244.66;;;11.72;45.19
60019;BME280;45870;42.528;26.740;2023-03-05T00:31:39;99250.66;;;10.97;47.30
60019;BME280;45870;42.528;26.740;2023-03-05T00:34:11;99247.69;;;11.37;46.74
60019;BME280;45870;42.528;26.740;2023-03-05T00:36:47;99250.06;;;11.94;47.09
60019;BME280;45870;42.528;26.740;2023-03-05T00:39:14;99247.78;;;12.34;46.63
60019;BME280;45870;42.528;26.740;2023-03-05T00:41:39;99227.94;;;11.75;44.12
60019;BME280;45870;42.528;26.740;2023-03-05T00:44:05;99239.34;;;10.84;48.18
60019;BME280;45870;42.528;26.740;2023-03-05T00:46:31;99239.34;;;11.39;47.16
60019;BME280;45870;42.528;26.740;2023-03-05T00:48:57;99248.78;;;11.75;46.64
60019;BME280;45870;42.528;26.740;2023-03-05T00:51:23;99246.34;;;11.57;46.92
60019;BME280;45870;42.528;26.740;2023-03-05T00:53:49;99243.84;;;11.50;47.37
60019;BME280;45870;42.528;26.740;2023-03-05T00:56:15;99245.75;;;12.20;46.42
60019;BME280;45870;42.528;26.740;2023-03-05T00:58:41;99246.19;;;11.85;46.13
60019;BME280;45870;42.528;26.740;2023-03-05T01:01:07;99231.81;;;12.06;46.20
60019;BME280;45870;42.528;26.740;2023-03-05T01:03:34;99244.47;;;11.79;46.48
60019;BME280;45870;42.528;26.740;2023-03-05T01:06:02;99248.94;;;11.90;46.78
60019;BME280;45870;42.528;26.740;2023-03-05T01:08:28;99245.28;;;12.01;46.06
60019;BME280;45870;42.528;26.740;2023-03-05T01:10:54;99239.06;;;11.79;45.54
60019;BME280;45870;42.528;26.740;2023-03-05T01:13:19;99221.81;;;11.41;46.77
60019;BME280;45870;42.528;26.740;2023-03-05T01:15:45;99214.97;;;11.34;46.51
60019;BME280;45870;42.528;26.740;2023-03-05T01:18:13;99247.47;;;11.61;46.56
60019;BME280;45870;42.528;26.740;2023-03-05T01:20:38;99219.38;;;11.18;46.32
60019;BME280;45870;42.528;26.740;2023-03-05T01:23:04;99258.38;;;8.31;50.13
60019;BME280;45870;42.528;26.740;2023-03-05T01:25:30;99258.16;;;7.37;56.52
60019;BME280;45870;42.528;26.740;2023-03-05T01:27:55;99248.13;;;8.51;53.03
60019;BME280;45870;42.528;26.740;2023-03-05T01:30:21;99251.38;;;7.82;54.14
60019;BME280;45870;42.528;26.740;2023-03-05T01:32:47;99252.47;;;6.66;57.37
60019;BME280;45870;42.528;26.740;2023-03-05T01:35:19;99261.00;;;6.81;57.42
60019;BME280;45870;42.528;26.740;2023-03-05T01:37:46;99255.44;;;6.82;56.97
60019;BME280;45870;42.528;26.740;2023-03-05T01:40:14;99241.22;;;8.14;52.85
60019;BME280;45870;42.528;26.740;2023-03-05T01:42:48;99247.66;;;9.87;48.58
60019;BME280;45870;42.528;26.740;2023-03-05T01:45:19;99254.97;;;10.48;46.07
60019;BME280;45870;42.528;26.740;2023-03-05T01:47:45;99179.28;;;9.65;46.96
60019;BME280;45870;42.528;26.740;2023-03-05T01:50:15;99258.19;;;10.17;47.41
60019;BME280;45870;42.528;26.740;2023-03-05T01:52:48;99257.41;;;10.17;46.96
60019;BME280;45870;42.528;26.740;2023-03-05T01:55:18;99166.19;;;9.57;47.01
60019;BME280;45870;42.528;26.740;2023-03-05T01:57:49;99253.34;;;10.31;46.74
60019;BME280;45870;42.528;26.740;2023-03-05T02:00:28;99244.00;;;10.38;45.66
60019;BME280;45870;42.528;26.740;2023-03-05T02:02:56;99248.19;;;10.29;46.14
60019;BME280;45870;42.528;26.740;2023-03-05T02:05:30;99154.28;;;9.53;46.85
60019;BME280;45870;42.528;26.740;2023-03-05T02:07:57;99252.38;;;9.69;47.71
60019;BME280;45870;42.528;26.740;2023-03-05T02:10:26;99248.38;;;9.71;48.27
60019;BME280;45870;42.528;26.740;2023-03-05T02:12:55;99248.13;;;10.13;47.71
60019;BME280;45870;42.528;26.740;2023-03-05T02:15:23;99252.69;;;10.40;46.63
60019;BME280;45870;42.528;26.740;2023-03-05T02:17:48;99250.78;;;10.24;46.97
60019;BME280;45870;42.528;26.740;2023-03-05T02:20:22;99231.03;;;10.07;47.10
60019;BME280;45870;42.528;26.740;2023-03-05T02:22:49;99254.66;;;10.45;47.05
60019;BME280;45870;42.528;26.740;2023-03-05T02:25:23;99248.09;;;10.24;47.89
60019;BME280;45870;42.528;26.740;2023-03-05T02:27:56;99249.44;;;10.55;45.58
60019;BME280;45870;42.528;26.740;2023-03-05T02:30:23;99255.72;;;10.61;46.08
60019;BME280;45870;42.528;26.740;2023-03-05T02:32:49;99256.06;;;10.64;47.09
60019;BME280;45870;42.528;26.740;2023-03-05T02:35:15;99254.25;;;10.70;46.71
60019;BME280;45870;42.528;26.740;2023-03-05T02:37:41;99240.84;;;10.58;47.33
60019;BME280;45870;42.528;26.740;2023-03-05T02:40:08;99254.69;;;10.62;47.11
60019;BME280;45870;42.528;26.740;2023-03-05T02:42:34;99187.31;;;10.05;46.92
60019;BME280;45870;42.528;26.740;2023-03-05T02:45:00;99139.03;;;9.59;48.04
60019;BME280;45870;42.528;26.740;2023-03-05T02:47:27;99247.69;;;10.04;49.20
60019;BME280;45870;42.528;26.740;2023-03-05T02:49:53;99249.56;;;10.03;49.21
60019;BME280;45870;42.528;26.740;2023-03-05T02:52:20;99248.34;;;10.11;49.19
60019;BME280;45870;42.528;26.740;2023-03-05T02:54:48;99246.34;;;10.80;47.28
60019;BME280;45870;42.528;26.740;2023-03-05T02:57:14;99153.91;;;10.06;47.21
60019;BME280;45870;42.528;26.740;2023-03-05T02:59:40;99229.19;;;9.04;51.09
60019;BME280;45870;42.528;26.740;2023-03-05T03:02:05;99163.16;;;8.21;53.21
60019;BME280;45870;42.528;26.740;2023-03-05T03:04:31;99237.06;;;9.58;49.99
60019;BME280;45870;42.528;26.740;2023-03-05T03:06:57;99236.69;;;9.66;49.96
60019;BME280;45870;42.528;26.740;2023-03-05T03:09:22;99235.78;;;9.60;50.32
60019;BME280;45870;42.528;26.740;2023-03-05T03:11:48;99225.78;;;9.21;51.54
60019;BME280;45870;42.528;26.740;2023-03-05T03:14:14;99235.56;;;10.18;49.30
60019;BME280;45870;42.528;26.740;2023-03-05T03:16:39;99240.00;;;10.91;47.36
60019;BME280;45870;42.528;26.740;2023-03-05T03:19:05;99241.38;;;11.10;46.83
60019;BME280;45870;42.528;26.740;2023-03-05T03:21:32;99243.88;;;10.62;47.49
60019;BME280;45870;42.528;26.740;2023-03-05T03:23:57;99241.91;;;10.74;47.74
60019;BME280;45870;42.528;26.740;2023-03-05T03:26:23;99244.25;;;7.58;55.03
60019;BME280;45870;42.528;26.740;2023-03-05T03:28:49;99242.59;;;9.39;51.39
60019;BME280;45870;42.528;26.740;2023-03-05T03:31:15;99035.19;;;9.23;47.82
60019;BME280;45870;42.528;26.740;2023-03-05T03:33:41;99238.59;;;10.22;47.91
60019;BME280;45870;42.528;26.740;2023-03-05T03:36:07;99231.53;;;9.64;49.82
60019;BME280;45870;42.528;26.740;2023-03-05T03:38:33;99237.56;;;10.39;49.78
60019;BME280;45870;42.528;26.740;2023-03-05T03:40:59;99237.56;;;10.56;49.43
60019;BME280;45870;42.528;26.740;2023-03-05T03:43:25;99227.88;;;11.10;48.31
60019;BME280;45870;42.528;26.740;2023-03-05T03:45:51;99230.75;;;11.64;46.78
60019;BME280;45870;42.528;26.740;2023-03-05T03:48:17;99225.03;;;11.38;46.76
60019;BME280;45870;42.528;26.740;2023-03-05T03:50:43;99226.00;;;11.11;48.37
60019;BME280;45870;42.528;26.740;2023-03-05T03:53:09;99214.47;;;10.98;47.79
60019;BME280;45870;42.528;26.740;2023-03-05T03:55:40;99227.91;;;10.77;47.89
60019;BME280;45870;42.528;26.740;2023-03-05T03:58:07;99218.47;;;9.56;51.05
60019;BME280;45870;42.528;26.740;2023-03-05T04:00:34;99220.47;;;9.49;51.38
60019;BME280;45870;42.528;26.740;2023-03-05T04:02:59;99210.28;;;10.08;49.93
60019;BME280;45870;42.528;26.740;2023-03-05T04:05:25;99178.56;;;9.98;49.53
60019;BME280;45870;42.528;26.740;2023-03-05T04:07:51;99147.53;;;10.45;48.00
60019;BME280;45870;42.528;26.740;2023-03-05T04:10:17;99214.44;;;9.98;50.22
60019;BME280;45870;42.528;26.740;2023-03-05T04:12:42;99212.56;;;10.27;48.48
60019;BME280;45870;42.528;26.740;2023-03-05T04:15:10;99169.41;;;9.99;48.26
60019;BME280;45870;42.528;26.740;2023-03-05T04:17:37;99207.97;;;10.61;47.49
60019;BME280;45870;42.528;26.740;2023-03-05T04:20:04;99207.97;;;10.61;47.73
60019;BME280;45870;42.528;26.740;2023-03-05T04:22:31;99212.03;;;10.80;46.94
60019;BME280;45870;42.528;26.740;2023-03-05T04:24:57;99214.78;;;11.02;45.40
60019;BME280;45870;42.528;26.740;2023-03-05T04:27:23;99220.16;;;10.47;47.47
60019;BME280;45870;42.528;26.740;2023-03-05T04:29:48;99213.84;;;10.25;47.60
60019;BME280;45870;42.528;26.740;2023-03-05T04:32:14;99024.06;;;7.70;50.64
60019;BME280;45870;42.528;26.740;2023-03-05T04:34:47;99203.22;;;10.18;47.92
60019;BME280;45870;42.528;26.740;2023-03-05T04:37:13;99214.41;;;10.77;46.51
60019;BME280;45870;42.528;26.740;2023-03-05T04:39:38;99216.00;;;10.73;46.42
60019;BME280;45870;42.528;26.740;2023-03-05T04:42:04;99208.13;;;10.21;47.36
60019;BME280;45870;42.528;26.740;2023-03-05T04:44:30;99216.00;;;10.11;48.14
60019;BME280;45870;42.528;26.740;2023-03-05T04:46:55;99213.28;;;10.23;47.55
60019;BME280;45870;42.528;26.740;2023-03-05T04:49:21;99207.38;;;10.59;45.43
60019;BME280;45870;42.528;26.740;2023-03-05T04:51:47;99203.13;;;9.85;47.13
60019;BME280;45870;42.528;26.740;2023-03-05T04:54:12;99224.75;;;8.98;50.03
60019;BME280;45870;42.528;26.740;2023-03-05T04:56:38;99221.41;;;9.83;48.47
60019;BME280;45870;42.528;26.740;2023-03-05T04:59:03;99222.25;;;10.28;45.79
60019;BME280;45870;42.528;26.740;2023-03-05T05:01:29;99221.94;;;10.41;46.15
60019;BME280;45870;42.528;26.740;2023-03-05T05:03:55;99226.13;;;10.49;45.85
60019;BME280;45870;42.528;26.740;2023-03-05T05:06:20;99240.28;;;8.09;50.50
60019;BME280;45870;42.528;26.740;2023-03-05T05:08:46;99233.84;;;7.14;54.89
60019;BME280;45870;42.528;26.740;2023-03-05T05:11:13;99242.75;;;9.84;48.25
60019;BME280;45870;42.528;26.740;2023-03-05T05:13:38;99103.06;;;9.81;46.50
60019;BME280;45870;42.528;26.740;2023-03-05T05:16:07;99245.03;;;10.82;45.89
60019;BME280;45870;42.528;26.740;2023-03-05T05:18:33;99253.47;;;11.24;45.45
60019;BME280;45870;42.528;26.740;2023-03-05T05:20:59;99253.75;;;11.44;46.21
60019;BME280;45870;42.528;26.740;2023-03-05T05:23:25;99256.94;;;11.80;45.54
60019;BME280;45870;42.528;26.740;2023-03-05T05:25:59;99246.09;;;12.01;45.65
60019;BME280;45870;42.528;26.740;2023-03-05T05:28:25;99257.13;;;12.48;45.07
60019;BME280;45870;42.528;26.740;2023-03-05T05:30:52;99262.63;;;12.59;45.94
60019;BME280;45870;42.528;26.740;2023-03-05T05:33:18;99257.84;;;12.71;46.01
60019;BME280;45870;42.528;26.740;2023-03-05T05:35:43;99267.25;;;12.31;45.42
60019;BME280;45870;42.528;26.740;2023-03-05T05:38:09;99225.78;;;12.58;44.34
60019;BME280;45870;42.528;26.740;2023-03-05T05:40:35;99263.44;;;11.62;47.29
60019;BME280;45870;42.528;26.740;2023-03-05T05:43:00;99262.09;;;11.81;46.61
60019;BME280;45870;42.528;26.740;2023-03-05T05:45:26;99283.09;;;8.22;55.02
60019;BME280;45870;42.528;26.740;2023-03-05T05:47:51;99265.47;;;8.90;52.61
60019;BME280;45870;42.528;26.740;2023-03-05T05:50:18;99275.31;;;9.08;52.06
60019;BME280;45870;42.528;26.740;2023-03-05T05:52:44;99272.53;;;11.34;47.76
60019;BME280;45870;42.528;26.740;2023-03-05T05:55:10;99144.91;;;11.27;46.66
60019;BME280;45870;42.528;26.740;2023-03-05T05:57:36;99287.59;;;12.66;47.00
60019;BME280;45870;42.528;26.740;2023-03-05T06:00:07;99296.84;;;13.38;46.96
60019;BME280;45870;42.528;26.740;2023-03-05T06:02:37;99303.25;;;13.69;47.19
60019;BME280;45870;42.528;26.740;2023-03-05T06:05:03;99281.19;;;14.13;43.58
60019;BME280;45870;42.528;26.740;2023-03-05T06:07:29;99289.53;;;13.96;45.17
60019;BME280;45870;42.528;26.740;2023-03-05T06:09:56;99295.03;;;12.80;47.32
60019;BME280;45870;42.528;26.740;2023-03-05T06:12:21;99298.00;;;13.52;47.13
60019;BME280;45870;42.528;26.740;2023-03-05T06:14:47;99302.94;;;14.18;45.49
60019;BME280;45870;42.528;26.740;2023-03-05T06:17:13;99282.88;;;13.20;49.04
60019;BME280;45870;42.528;26.740;2023-03-05T06:19:38;99269.59;;;13.60;48.64
60019;BME280;45870;42.528;26.740;2023-03-05T06:22:04;99293.78;;;15.25;45.58
60019;BME280;45870;42.528;26.740;2023-03-05T06:24:30;99294.50;;;14.14;46.86
60019;BME280;45870;42.528;26.740;2023-03-05T06:26:56;99299.91;;;14.09;47.65
60019;BME280;45870;42.528;26.740;2023-03-05T06:29:21;99296.66;;;14.12;47.10
60019;BME280;45870;42.528;26.740;2023-03-05T06:31:47;99300.66;;;13.89;47.35
60019;BME280;45870;42.528;26.740;2023-03-05T06:34:13;99255.50;;;11.34;52.30
60019;BME280;45870;42.528;26.740;2023-03-05T06:36:38;99298.53;;;11.79;52.27
60019;BME280;45870;42.528;26.740;2023-03-05T06:39:05;99303.38;;;13.42;48.11
60019;BME280;45870;42.528;26.740;2023-03-05T06:41:31;99236.00;;;13.71;47.35
60019;BME280;45870;42.528;26.740;2023-03-05T06:43:59;99276.16;;;15.02;45.11
60019;BME280;45870;42.528;26.740;2023-03-05T06:46:28;99298.94;;;15.31;45.32
60019;BME280;45870;42.528;26.740;2023-03-05T06:48:58;99302.25;;;14.93;45.40
60019;BME280;45870;42.528;26.740;2023-03-05T06:51:29;99275.34;;;16.01;42.86
60019;BME280;45870;42.528;26.740;2023-03-05T06:53:59;99296.81;;;13.85;46.84
60019;BME280;45870;42.528;26.740;2023-03-05T06:56:26;99295.84;;;15.93;43.40
60019;BME280;45870;42.528;26.740;2023-03-05T06:58:52;99256.56;;;16.54;41.30
60019;BME280;45870;42.528;26.740;2023-03-05T07:01:19;99280.38;;;15.79;42.83
60019;BME280;45870;42.528;26.740;2023-03-05T07:03:49;99286.44;;;17.84;39.36
60019;BME280;45870;42.528;26.740;2023-03-05T07:06:15;99289.28;;;16.43;42.21
60019;BME280;45870;42.528;26.740;2023-03-05T07:08:41;99279.88;;;15.41;43.65
60019;BME280;45870;42.528;26.740;2023-03-05T07:11:14;99271.34;;;17.91;39.93
60019;BME280;45870;42.528;26.740;2023-03-05T07:13:40;99284.53;;;17.84;39.93
60019;BME280;45870;42.528;26.740;2023-03-05T07:16:09;99286.56;;;18.59;38.53
60019;BME280;45870;42.528;26.740;2023-03-05T07:18:36;99274.09;;;18.10;40.00
60019;BME280;45870;42.528;26.740;2023-03-05T07:21:03;99281.91;;;19.10;39.94
60019;BME280;45870;42.528;26.740;2023-03-05T07:23:29;99279.19;;;19.10;38.64
60019;BME280;45870;42.528;26.740;2023-03-05T07:25:55;99261.94;;;19.42;38.44
60019;BME280;45870;42.528;26.740;2023-03-05T07:28:20;99274.22;;;19.12;39.52
60019;BME280;45870;42.528;26.740;2023-03-05T07:30:55;99277.63;;;21.57;35.49
60019;BME280;45870;42.528;26.740;2023-03-05T07:33:20;99273.16;;;20.94;36.40
60019;BME280;45870;42.528;26.740;2023-03-05T07:35:46;99265.06;;;23.24;32.86
60019;BME280;45870;42.528;26.740;2023-03-05T07:38:12;99258.94;;;23.10;32.31
60019;BME280;45870;42.528;26.740;2023-03-05T07:40:37;99253.81;;;22.74;32.69
60019;BME280;45870;42.528;26.740;2023-03-05T07:43:03;99248.34;;;23.37;32.50
60019;BME280;45870;42.528;26.740;2023-03-05T07:45:29;99229.00;;;24.63;29.54
60019;BME280;45870;42.528;26.740;2023-03-05T07:47:54;99244.28;;;24.61;30.29
60019;BME280;45870;42.528;26.740;2023-03-05T07:50:21;99243.50;;;23.81;31.10
60019;BME280;45870;42.528;26.740;2023-03-05T07:52:46;99213.75;;;20.89;34.18
60019;BME280;45870;42.528;26.740;2023-03-05T07:55:12;99240.63;;;20.79;35.57
60019;BME280;45870;42.528;26.740;2023-03-05T07:57:38;99233.56;;;21.39;35.53
60019;BME280;45870;42.528;26.740;2023-03-05T08:00:05;99185.09;;;21.83;33.62
60019;BME280;45870;42.528;26.740;2023-03-05T08:02:31;99224.84;;;23.40;30.39
60019;BME280;45870;42.528;26.740;2023-03-05T08:04:57;99215.16;;;25.62;27.55
60019;BME280;45870;42.528;26.740;2023-03-05T08:07:23;99205.09;;;24.05;30.56
60019;BME280;45870;42.528;26.740;2023-03-05T08:09:48;99206.63;;;24.98;26.77
60019;BME280;45870;42.528;26.740;2023-03-05T08:12:14;99207.78;;;25.54;26.46
60019;BME280;45870;42.528;26.740;2023-03-05T08:14:39;99202.31;;;22.57;29.57
60019;BME280;45870;42.528;26.740;2023-03-05T08:17:07;99207.88;;;18.74;35.03
60019;BME280;45870;42.528;26.740;2023-03-05T08:19:33;99206.50;;;19.04;36.25
60019;BME280;45870;42.528;26.740;2023-03-05T08:21:59;99204.91;;;16.38;42.46
60019;BME280;45870;42.528;26.740;2023-03-05T08:24:24;99199.34;;;16.15;44.65
60019;BME280;45870;42.528;26.740;2023-03-05T08:26:54;99204.66;;;17.50;42.03
60019;BME280;45870;42.528;26.740;2023-03-05T08:29:21;99185.13;;;18.41;38.65
60019;BME280;45870;42.528;26.740;2023-03-05T08:31:47;98952.81;;;16.51;42.07
60019;BME280;45870;42.528;26.740;2023-03-05T08:34:13;99193.25;;;19.25;37.39
60019;BME280;45870;42.528;26.740;2023-03-05T08:36:39;99196.16;;;18.36;37.92
60019;BME280;45870;42.528;26.740;2023-03-05T08:39:05;99193.78;;;19.13;37.01
60019;BME280;45870;42.528;26.740;2023-03-05T08:41:34;99188.44;;;19.76;34.85
60019;BME280;45870;42.528;26.740;2023-03-05T08:44:00;99180.81;;;20.23;34.29
60019;BME280;45870;42.528;26.740;2023-03-05T08:46:26;99183.25;;;21.53;32.82
60019;BME280;45870;42.528;26.740;2023-03-05T08:48:51;99183.91;;;20.43;35.24
60019;BME280;45870;42.528;26.740;2023-03-05T08:51:23;99184.84;;;20.61;35.45
60019;BME280;45870;42.528;26.740;2023-03-05T08:53:54;99156.56;;;20.83;34.03
60019;BME280;45870;42.528;26.740;2023-03-05T08:56:20;99178.88;;;22.42;33.02
60019;BME280;45870;42.528;26.740;2023-03-05T08:58:46;99066.56;;;20.85;33.00
60019;BME280;45870;42.528;26.740;2023-03-05T09:01:12;99184.31;;;21.34;33.60
60019;BME280;45870;42.528;26.740;2023-03-05T09:03:38;99184.03;;;20.61;34.63
60019;BME280;45870;42.528;26.740;2023-03-05T09:06:07;99180.56;;;21.70;32.37
60019;BME280;45870;42.528;26.740;2023-03-05T09:08:33;99180.44;;;23.04;31.34
60019;BME280;45870;42.528;26.740;2023-03-05T09:11:04;99177.03;;;22.98;29.91
60019;BME280;45870;42.528;26.740;2023-03-05T09:13:31;99179.03;;;23.27;29.20
60019;BME280;45870;42.528;26.740;2023-03-05T09:15:59;99175.94;;;22.65;29.95
60019;BME280;45870;42.528;26.740;2023-03-05T09:18:26;99179.69;;;22.52;30.25
60019;BME280;45870;42.528;26.740;2023-03-05T09:20:52;99182.69;;;23.02;29.52
60019;BME280;45870;42.528;26.740;2023-03-05T09:23:18;99169.88;;;23.06;29.35
60019;BME280;45870;42.528;26.740;2023-03-05T09:25:57;99161.91;;;22.40;29.62
60019;BME280;45870;42.528;26.740;2023-03-05T09:28:33;99167.66;;;25.11;26.30
60019;BME280;45870;42.528;26.740;2023-03-05T09:31:04;99161.97;;;24.42;27.14
60019;BME280;45870;42.528;26.740;2023-03-05T09:33:31;99100.78;;;20.87;30.86
60019;BME280;45870;42.528;26.740;2023-03-05T09:35:58;99142.63;;;22.58;29.48
60019;BME280;45870;42.528;26.740;2023-03-05T09:38:24;99145.97;;;20.90;32.16
60019;BME280;45870;42.528;26.740;2023-03-05T09:41:06;99150.84;;;21.24;32.84
60019;BME280;45870;42.528;26.740;2023-03-05T09:46:52;99151.72;;;19.36;33.68
60019;BME280;45870;42.528;26.740;2023-03-05T09:52:17;99142.25;;;20.86;32.07
60019;BME280;45870;42.528;26.740;2023-03-05T09:54:47;99130.38;;;20.46;32.04
60019;BME280;45870;42.528;26.740;2023-03-05T09:57:18;99112.22;;;21.85;31.00
60019;BME280;45870;42.528;26.740;2023-03-05T09:59:57;99074.00;;;19.87;31.38
60019;BME280;45870;42.528;26.740;2023-03-05T10:02:25;99124.88;;;21.30;30.90
60019;BME280;45870;42.528;26.740;2023-03-05T10:05:17;99125.53;;;22.26;28.98
60019;BME280;45870;42.528;26.740;2023-03-05T10:07:52;99117.34;;;23.28;27.91
60019;BME280;45870;42.528;26.740;2023-03-05T10:10:39;99127.03;;;22.87;27.72
60019;BME280;45870;42.528;26.740;2023-03-05T10:13:15;99120.47;;;23.47;27.38
60019;BME280;45870;42.528;26.740;2023-03-05T10:18:45;99126.06;;;23.68;26.72
60019;BME280;45870;42.528;26.740;2023-03-05T10:21:39;99105.78;;;24.34;25.90
60019;BME280;45870;42.528;26.740;2023-03-05T10:40:40;99073.31;;;23.78;26.76
60019;BME280;45870;42.528;26.740;2023-03-05T10:43:23;99072.94;;;22.36;27.76
60019;BME280;45870;42.528;26.740;2023-03-05T10:45:53;99060.78;;;20.11;30.96
60019;BME280;45870;42.528;26.740;2023-03-05T10:48:53;99064.56;;;19.30;32.11
60019;BME280;45870;42.528;26.740;2023-03-05T10:51:40;99028.97;;;20.46;30.03
60019;BME280;45870;42.528;26.740;2023-03-05T10:59:50;99039.38;;;21.06;29.17
60019;BME280;45870;42.528;26.740;2023-03-05T11:02:17;98961.09;;;20.21;29.92
60019;BME280;45870;42.528;26.740;2023-03-05T11:04:43;99040.91;;;20.06;31.28
60019;BME280;45870;42.528;26.740;2023-03-05T11:09:41;99023.25;;;22.50;27.39
60019;BME280;45870;42.528;26.740;2023-03-05T11:12:16;99018.16;;;21.71;28.39
60019;BME280;45870;42.528;26.740;2023-03-05T11:17:46;99008.59;;;22.29;27.25
60019;BME280;45870;42.528;26.740;2023-03-05T11:23:17;99005.53;;;23.77;25.36
60019;BME280;45870;42.528;26.740;2023-03-05T11:25:53;98999.63;;;23.87;24.34
60019;BME280;45870;42.528;26.740;2023-03-05T11:28:24;99001.22;;;25.39;22.85
60019;BME280;45870;42.528;26.740;2023-03-05T11:30:56;98988.16;;;25.11;23.28
60019;BME280;45870;42.528;26.740;2023-03-05T11:33:23;98994.50;;;24.30;22.66
60019;BME280;45870;42.528;26.740;2023-03-05T11:35:51;98986.66;;;25.14;22.99
60019;BME280;45870;42.528;26.740;2023-03-05T11:38:25;98984.44;;;24.71;24.43
60019;BME280;45870;42.528;26.740;2023-03-05T11:40:53;98973.63;;;24.66;23.18
60019;BME280;45870;42.528;26.740;2023-03-05T11:43:23;98976.84;;;24.56;23.39
60019;BME280;45870;42.528;26.740;2023-03-05T11:45:52;98979.59;;;24.68;24.41
60019;BME280;45870;42.528;26.740;2023-03-05T11:48:25;98983.50;;;23.06;26.40
60019;BME280;45870;42.528;26.740;2023-03-05T11:50:57;98926.13;;;22.20;27.28
60019;BME280;45870;42.528;26.740;2023-03-05T11:53:30;98924.94;;;19.88;30.62
60019;BME280;45870;42.528;26.740;2023-03-05T11:56:10;98977.63;;;19.85;30.73
60019;BME280;45870;42.528;26.740;2023-03-05T11:58:50;98973.97;;;21.08;29.62
60019;BME280;45870;42.528;26.740;2023-03-05T12:01:24;98968.22;;;21.86;27.95
60019;BME280;45870;42.528;26.740;2023-03-05T12:03:51;98937.19;;;20.43;30.41
60019;BME280;45870;42.528;26.740;2023-03-05T12:11:40;98962.88;;;23.62;27.92
60019;BME280;45870;42.528;26.740;2023-03-05T12:14:24;98952.97;;;23.40;28.08
60019;BME280;45870;42.528;26.740;2023-03-05T12:16:57;98961.28;;;23.94;26.85
60019;BME280;45870;42.528;26.740;2023-03-05T12:19:46;98962.56;;;23.64;28.09
60019;BME280;45870;42.528;26.740;2023-03-05T12:22:20;98944.72;;;23.61;27.15
60019;BME280;45870;42.528;26.740;2023-03-05T12:24:46;98951.59;;;23.55;26.65
60019;BME280;45870;42.528;26.740;2023-03-05T12:27:15;98952.56;;;23.92;25.94
60019;BME280;45870;42.528;26.740;2023-03-05T12:29:45;98945.28;;;23.55;27.03
60019;BME280;45870;42.528;26.740;2023-03-05T12:42:58;98928.41;;;23.35;27.23
60019;BME280;45870;42.528;26.740;2023-03-05T12:45:28;98894.53;;;20.68;31.08
60019;BME280;45870;42.528;26.740;2023-03-05T12:52:58;98916.47;;;20.68;31.25
60019;BME280;45870;42.528;26.740;2023-03-05T12:58:04;98928.22;;;21.42;30.31
60019;BME280;45870;42.528;26.740;2023-03-05T13:00:39;98910.75;;;21.38;30.13
60019;BME280;45870;42.528;26.740;2023-03-05T13:03:13;98911.63;;;19.95;31.60
60019;BME280;45870;42.528;26.740;2023-03-05T13:05:53;98908.03;;;21.38;29.64
60019;BME280;45870;42.528;26.740;2023-03-05T13:08:24;98906.38;;;21.12;30.25
60019;BME280;45870;42.528;26.740;2023-03-05T13:10:57;98908.50;;;19.35;33.61
60019;BME280;45870;42.528;26.740;2023-03-05T13:13:25;98907.72;;;17.57;35.65
60019;BME280;45870;42.528;26.740;2023-03-05T13:15:52;98886.91;;;17.42;36.45
60019;BME280;45870;42.528;26.740;2023-03-05T13:18:25;98907.00;;;17.14;36.81
60019;BME280;45870;42.528;26.740;2023-03-05T13:21:11;98840.41;;;15.98;37.76
60019;BME280;45870;42.528;26.740;2023-03-05T13:23:52;98907.97;;;16.67;38.43
60019;BME280;45870;42.528;26.740;2023-03-05T13:26:24;98901.91;;;16.89;37.44
60019;BME280;45870;42.528;26.740;2023-03-05T13:29:12;98890.38;;;16.97;37.71
60019;BME280;45870;42.528;26.740;2023-03-05T13:31:44;98822.50;;;17.28;36.16
60019;BME280;45870;42.528;26.740;2023-03-05T13:34:32;98883.34;;;17.93;35.39
60019;BME280;45870;42.528;26.740;2023-03-05T13:37:01;98884.16;;;17.93;36.03
60019;BME280;45870;42.528;26.740;2023-03-05T13:39:33;98882.91;;;17.72;35.97
60019;BME280;45870;42.528;26.740;2023-03-05T13:42:05;98881.84;;;18.01;35.34
60019;BME280;45870;42.528;26.740;2023-03-05T13:44:32;98881.63;;;18.38;34.63
60019;BME280;45870;42.528;26.740;2023-03-05T13:47:19;98886.53;;;17.49;36.59
60019;BME280;45870;42.528;26.740;2023-03-05T13:49:45;98874.47;;;18.01;35.00
60019;BME280;45870;42.528;26.740;2023-03-05T13:52:22;98872.75;;;18.19;34.64
60019;BME280;45870;42.528;26.740;2023-03-05T13:54:48;98870.81;;;18.46;33.92
60019;BME280;45870;42.528;26.740;2023-03-05T13:57:39;98874.25;;;18.38;35.84
60019;BME280;45870;42.528;26.740;2023-03-05T14:02:49;98878.09;;;18.51;33.90
60019;BME280;45870;42.528;26.740;2023-03-05T14:05:15;98807.28;;;18.77;33.44